sensor_id;sensor_type;location;lat;lon;timestamp;temperature;humidity
6008;DHT22;3032;49.484;11.112;2022-11-15T00:00:25;8.40;99.90
6008;DHT22;3032;49.484;11.112;2022-11-15T00:02:55;8.60;99.90
6008;DHT22;3032;49.484;11.112;2022-11-15T00:05:21;8.70;99.90
6008;DHT22;3032;49.484;11.112;2022-11-15T00:07:46;8.60;99.90
6008;DHT22;3032;49.484;11.112;2022-11-15T00:10:12;8.70;99.90
6008;DHT22;3032;49.484;11.112;2022-11-15T00:12:38;8.70;99.90
6008;DHT22;3032;49.484;11.112;2022-11-15T00:15:04;8.70;99.90
6008;DHT22;3032;49.484;11.112;2022-11-15T00:17:30;8.80;99.90
6008;DHT22;3032;49.484;11.112;2022-11-15T00:19:56;8.70;99.90
6008;DHT22;3032;49.484;11.112;2022-11-15T00:22:21;8.60;99.90
6008;DHT22;3032;49.484;11.112;2022-11-15T00:24:47;8.50;99.90
6008;DHT22;3032;49.484;11.112;2022-11-15T00:27:12;8.30;99.90
6008;DHT22;3032;49.484;11.112;2022-11-15T00:29:38;8.20;99.90
6008;DHT22;3032;49.484;11.112;2022-11-15T00:32:11;8.10;99.90
6008;DHT22;3032;49.484;11.112;2022-11-15T00:34:37;8.00;99.90
6008;DHT22;3032;49.484;11.112;2022-11-15T00:37:03;8.00;99.90
6008;DHT22;3032;49.484;11.112;2022-11-15T00:39:28;8.20;99.90
6008;DHT22;3032;49.484;11.112;2022-11-15T00:41:54;8.20;99.90
6008;DHT22;3032;49.484;11.112;2022-11-15T00:44:19;8.50;99.90
6008;DHT22;3032;49.484;11.112;2022-11-15T00:46:45;8.80;99.90
6008;DHT22;3032;49.484;11.112;2022-11-15T00:49:10;9.10;99.90
6008;DHT22;3032;49.484;11.112;2022-11-15T00:51:36;9.40;99.90
6008;DHT22;3032;49.484;11.112;2022-11-15T00:54:01;9.60;99.90
6008;DHT22;3032;49.484;11.112;2022-11-15T00:56:27;9.40;99.90
6008;DHT22;3032;49.484;11.112;2022-11-15T00:58:53;9.10;99.90
6008;DHT22;3032;49.484;11.112;2022-11-15T01:01:19;9.10;99.90
6008;DHT22;3032;49.484;11.112;2022-11-15T01:03:44;9.20;99.90
6008;DHT22;3032;49.484;11.112;2022-11-15T01:06:11;9.30;99.90
6008;DHT22;3032;49.484;11.112;2022-11-15T01:08:40;9.20;99.90
6008;DHT22;3032;49.484;11.112;2022-11-15T01:11:10;8.90;99.90
6008;DHT22;3032;49.484;11.112;2022-11-15T01:13:37;8.80;99.90
6008;DHT22;3032;49.484;11.112;2022-11-15T01:16:12;8.80;99.90
6008;DHT22;3032;49.484;11.112;2022-11-15T01:18:38;8.80;99.90
6008;DHT22;3032;49.484;11.112;2022-11-15T01:21:05;8.50;99.90
6008;DHT22;3032;49.484;11.112;2022-11-15T01:23:31;8.30;99.90
6008;DHT22;3032;49.484;11.112;2022-11-15T01:26:00;8.40;99.90
6008;DHT22;3032;49.484;11.112;2022-11-15T01:28:30;8.30;99.90
6008;DHT22;3032;49.484;11.112;2022-11-15T01:31:01;8.20;99.90
6008;DHT22;3032;49.484;11.112;2022-11-15T01:33:27;8.10;99.90
6008;DHT22;3032;49.484;11.112;2022-11-15T01:35:53;8.30;99.90
6008;DHT22;3032;49.484;11.112;2022-11-15T01:38:19;8.50;99.90
6008;DHT22;3032;49.484;11.112;2022-11-15T01:40:45;8.70;99.90
6008;DHT22;3032;49.484;11.112;2022-11-15T01:43:27;8.80;99.90
6008;DHT22;3032;49.484;11.112;2022-11-15T01:46:51;8.80;99.90
6008;DHT22;3032;49.484;11.112;2022-11-15T01:48:53;8.40;99.90
6008;DHT22;3032;49.484;11.112;2022-11-15T01:51:22;8.50;99.90
6008;DHT22;3032;49.484;11.112;2022-11-15T01:53:51;8.70;99.90
6008;DHT22;3032;49.484;11.112;2022-11-15T01:56:21;8.80;99.90
6008;DHT22;3032;49.484;11.112;2022-11-15T01:58:48;8.90;99.90
6008;DHT22;3032;49.484;11.112;2022-11-15T02:01:14;8.40;99.90
6008;DHT22;3032;49.484;11.112;2022-11-15T02:03:51;7.80;99.90
6008;DHT22;3032;49.484;11.112;2022-11-15T02:06:18;7.30;99.90
6008;DHT22;3032;49.484;11.112;2022-11-15T02:08:44;7.10;99.90
6008;DHT22;3032;49.484;11.112;2022-11-15T02:11:10;7.00;99.90
6008;DHT22;3032;49.484;11.112;2022-11-15T02:13:36;7.20;99.90
6008;DHT22;3032;49.484;11.112;2022-11-15T02:18:49;7.40;99.90
6008;DHT22;3032;49.484;11.112;2022-11-15T02:21:18;7.20;99.90
6008;DHT22;3032;49.484;11.112;2022-11-15T02:29:13;7.70;99.90
6008;DHT22;3032;49.484;11.112;2022-11-15T02:31:59;8.00;99.90
6008;DHT22;3032;49.484;11.112;2022-11-15T02:34:42;8.40;99.90
6008;DHT22;3032;49.484;11.112;2022-11-15T02:39:41;8.90;99.90
6008;DHT22;3032;49.484;11.112;2022-11-15T02:42:19;8.70;99.90
6008;DHT22;3032;49.484;11.112;2022-11-15T02:45:07;9.40;99.90
6008;DHT22;3032;49.484;11.112;2022-11-15T02:47:43;9.00;99.90
6008;DHT22;3032;49.484;11.112;2022-11-15T02:50:11;9.10;99.90
6008;DHT22;3032;49.484;11.112;2022-11-15T02:52:38;9.10;99.90
6008;DHT22;3032;49.484;11.112;2022-11-15T02:55:04;9.20;99.90
6008;DHT22;3032;49.484;11.112;2022-11-15T03:00:20;9.20;99.90
6008;DHT22;3032;49.484;11.112;2022-11-15T03:03:16;9.30;99.90
6008;DHT22;3032;49.484;11.112;2022-11-15T03:05:52;9.10;99.90
6008;DHT22;3032;49.484;11.112;2022-11-15T03:08:49;8.30;99.90
6008;DHT22;3032;49.484;11.112;2022-11-15T03:11:19;7.70;99.90
6008;DHT22;3032;49.484;11.112;2022-11-15T03:19:17;7.80;99.90
6008;DHT22;3032;49.484;11.112;2022-11-15T03:21:45;7.80;99.90
6008;DHT22;3032;49.484;11.112;2022-11-15T03:24:12;7.70;99.90
6008;DHT22;3032;49.484;11.112;2022-11-15T03:26:41;7.80;99.90
6008;DHT22;3032;49.484;11.112;2022-11-15T03:29:22;7.90;99.90
6008;DHT22;3032;49.484;11.112;2022-11-15T03:31:58;8.00;99.90
6008;DHT22;3032;49.484;11.112;2022-11-15T03:34:29;7.30;99.90
6008;DHT22;3032;49.484;11.112;2022-11-15T03:36:55;6.90;99.90
6008;DHT22;3032;49.484;11.112;2022-11-15T03:39:21;6.70;99.90
6008;DHT22;3032;49.484;11.112;2022-11-15T03:41:49;6.80;99.90
6008;DHT22;3032;49.484;11.112;2022-11-15T03:47:13;7.20;99.90
6008;DHT22;3032;49.484;11.112;2022-11-15T03:49:44;7.10;99.90
6008;DHT22;3032;49.484;11.112;2022-11-15T03:52:12;7.10;99.90
6008;DHT22;3032;49.484;11.112;2022-11-15T03:54:48;7.20;99.90
6008;DHT22;3032;49.484;11.112;2022-11-15T03:57:14;7.30;99.90
6008;DHT22;3032;49.484;11.112;2022-11-15T03:59:39;7.40;99.90
6008;DHT22;3032;49.484;11.112;2022-11-15T04:02:05;7.50;99.90
6008;DHT22;3032;49.484;11.112;2022-11-15T04:04:30;7.60;99.90
6008;DHT22;3032;49.484;11.112;2022-11-15T04:06:56;7.60;99.90
6008;DHT22;3032;49.484;11.112;2022-11-15T04:09:22;7.50;99.90
6008;DHT22;3032;49.484;11.112;2022-11-15T04:11:47;7.40;99.90
6008;DHT22;3032;49.484;11.112;2022-11-15T04:14:13;7.30;99.90
6008;DHT22;3032;49.484;11.112;2022-11-15T04:16:38;7.50;99.90
6008;DHT22;3032;49.484;11.112;2022-11-15T04:19:04;7.70;99.90
6008;DHT22;3032;49.484;11.112;2022-11-15T04:21:48;7.90;99.90
6008;DHT22;3032;49.484;11.112;2022-11-15T04:24:32;7.50;99.90
6008;DHT22;3032;49.484;11.112;2022-11-15T04:26:58;7.30;99.90
6008;DHT22;3032;49.484;11.112;2022-11-15T04:29:24;7.50;99.90
6008;DHT22;3032;49.484;11.112;2022-11-15T04:32:06;7.50;99.90
6008;DHT22;3032;49.484;11.112;2022-11-15T04:34:32;6.70;99.90
6008;DHT22;3032;49.484;11.112;2022-11-15T04:36:58;6.60;99.90
6008;DHT22;3032;49.484;11.112;2022-11-15T04:39:43;6.90;99.90
6008;DHT22;3032;49.484;11.112;2022-11-15T04:42:09;7.30;99.90
6008;DHT22;3032;49.484;11.112;2022-11-15T04:44:35;7.40;99.90
6008;DHT22;3032;49.484;11.112;2022-11-15T04:47:01;7.50;99.90
6008;DHT22;3032;49.484;11.112;2022-11-15T04:49:27;7.30;99.90
6008;DHT22;3032;49.484;11.112;2022-11-15T04:51:53;7.10;99.90
6008;DHT22;3032;49.484;11.112;2022-11-15T04:54:19;6.40;99.90
6008;DHT22;3032;49.484;11.112;2022-11-15T04:56:44;6.00;99.90
6008;DHT22;3032;49.484;11.112;2022-11-15T04:59:10;6.30;99.90
6008;DHT22;3032;49.484;11.112;2022-11-15T05:01:35;6.50;99.90
6008;DHT22;3032;49.484;11.112;2022-11-15T05:04:01;6.70;99.90
6008;DHT22;3032;49.484;11.112;2022-11-15T05:06:49;6.30;99.90
6008;DHT22;3032;49.484;11.112;2022-11-15T05:09:15;6.10;99.90
6008;DHT22;3032;49.484;11.112;2022-11-15T05:11:41;6.00;99.90
6008;DHT22;3032;49.484;11.112;2022-11-15T05:14:06;5.70;99.90
6008;DHT22;3032;49.484;11.112;2022-11-15T05:16:32;5.30;99.90
6008;DHT22;3032;49.484;11.112;2022-11-15T05:18:58;5.30;99.90
6008;DHT22;3032;49.484;11.112;2022-11-15T05:21:23;5.20;99.90
6008;DHT22;3032;49.484;11.112;2022-11-15T05:23:49;5.10;99.90
6008;DHT22;3032;49.484;11.112;2022-11-15T05:26:16;5.20;99.90
6008;DHT22;3032;49.484;11.112;2022-11-15T05:28:43;5.20;99.90
6008;DHT22;3032;49.484;11.112;2022-11-15T05:31:11;5.30;99.90
6008;DHT22;3032;49.484;11.112;2022-11-15T05:33:38;5.50;99.90
6008;DHT22;3032;49.484;11.112;2022-11-15T05:36:28;5.60;99.90
6008;DHT22;3032;49.484;11.112;2022-11-15T05:38:54;5.80;99.90
6008;DHT22;3032;49.484;11.112;2022-11-15T05:41:25;5.80;99.90
6008;DHT22;3032;49.484;11.112;2022-11-15T05:43:52;5.80;99.90
6008;DHT22;3032;49.484;11.112;2022-11-15T05:46:19;5.90;99.90
6008;DHT22;3032;49.484;11.112;2022-11-15T05:48:47;6.10;99.90
6008;DHT22;3032;49.484;11.112;2022-11-15T05:51:16;6.10;99.90
6008;DHT22;3032;49.484;11.112;2022-11-15T05:53:43;6.10;99.90
6008;DHT22;3032;49.484;11.112;2022-11-15T05:56:09;6.20;99.90
6008;DHT22;3032;49.484;11.112;2022-11-15T05:58:37;6.20;99.90
6008;DHT22;3032;49.484;11.112;2022-11-15T06:01:02;6.30;99.90
6008;DHT22;3032;49.484;11.112;2022-11-15T06:03:28;6.30;99.90
6008;DHT22;3032;49.484;11.112;2022-11-15T06:05:54;6.30;99.90
6008;DHT22;3032;49.484;11.112;2022-11-15T06:08:19;6.20;99.90
6008;DHT22;3032;49.484;11.112;2022-11-15T06:10:45;6.10;99.90
6008;DHT22;3032;49.484;11.112;2022-11-15T06:13:11;6.00;99.90
6008;DHT22;3032;49.484;11.112;2022-11-15T06:15:36;5.70;99.90
6008;DHT22;3032;49.484;11.112;2022-11-15T06:18:02;5.70;99.90
6008;DHT22;3032;49.484;11.112;2022-11-15T06:20:28;5.60;99.90
6008;DHT22;3032;49.484;11.112;2022-11-15T06:23:03;5.70;99.90
6008;DHT22;3032;49.484;11.112;2022-11-15T06:25:29;5.60;99.90
6008;DHT22;3032;49.484;11.112;2022-11-15T06:27:56;5.60;99.90
6008;DHT22;3032;49.484;11.112;2022-11-15T06:30:23;5.70;99.90
6008;DHT22;3032;49.484;11.112;2022-11-15T06:32:49;5.90;99.90
6008;DHT22;3032;49.484;11.112;2022-11-15T06:35:14;6.10;99.90
6008;DHT22;3032;49.484;11.112;2022-11-15T06:37:41;6.20;99.90
6008;DHT22;3032;49.484;11.112;2022-11-15T06:40:08;6.30;99.90
6008;DHT22;3032;49.484;11.112;2022-11-15T06:42:33;6.20;99.90
6008;DHT22;3032;49.484;11.112;2022-11-15T06:44:59;6.30;99.90
6008;DHT22;3032;49.484;11.112;2022-11-15T06:47:25;6.50;99.90
6008;DHT22;3032;49.484;11.112;2022-11-15T06:49:50;6.60;99.90
6008;DHT22;3032;49.484;11.112;2022-11-15T06:52:16;6.50;99.90
6008;DHT22;3032;49.484;11.112;2022-11-15T06:54:44;6.50;99.90
6008;DHT22;3032;49.484;11.112;2022-11-15T06:57:09;6.50;99.90
6008;DHT22;3032;49.484;11.112;2022-11-15T06:59:36;6.50;99.90
6008;DHT22;3032;49.484;11.112;2022-11-15T07:02:01;6.50;99.90
6008;DHT22;3032;49.484;11.112;2022-11-15T07:04:27;6.50;99.90
6008;DHT22;3032;49.484;11.112;2022-11-15T07:06:53;6.50;99.90
6008;DHT22;3032;49.484;11.112;2022-11-15T07:09:18;6.40;99.90
6008;DHT22;3032;49.484;11.112;2022-11-15T07:11:44;6.60;99.90
6008;DHT22;3032;49.484;11.112;2022-11-15T07:14:09;6.90;99.90
6008;DHT22;3032;49.484;11.112;2022-11-15T07:16:36;6.90;99.90
6008;DHT22;3032;49.484;11.112;2022-11-15T07:19:02;7.10;99.90
6008;DHT22;3032;49.484;11.112;2022-11-15T07:21:27;7.20;99.90
6008;DHT22;3032;49.484;11.112;2022-11-15T07:23:53;7.30;99.90
6008;DHT22;3032;49.484;11.112;2022-11-15T07:26:19;7.10;99.90
6008;DHT22;3032;49.484;11.112;2022-11-15T07:28:44;7.10;99.90
6008;DHT22;3032;49.484;11.112;2022-11-15T07:31:10;7.30;99.90
6008;DHT22;3032;49.484;11.112;2022-11-15T07:33:35;7.20;99.90
6008;DHT22;3032;49.484;11.112;2022-11-15T07:36:02;7.20;99.90
6008;DHT22;3032;49.484;11.112;2022-11-15T07:38:29;7.20;99.90
6008;DHT22;3032;49.484;11.112;2022-11-15T07:40:59;7.40;99.90
6008;DHT22;3032;49.484;11.112;2022-11-15T07:43:25;7.60;99.90
6008;DHT22;3032;49.484;11.112;2022-11-15T07:45:53;7.70;99.90
6008;DHT22;3032;49.484;11.112;2022-11-15T07:48:19;8.50;99.90
6008;DHT22;3032;49.484;11.112;2022-11-15T07:50:44;10.50;99.90
6008;DHT22;3032;49.484;11.112;2022-11-15T07:53:10;11.10;99.90
6008;DHT22;3032;49.484;11.112;2022-11-15T07:55:36;12.30;99.90
6008;DHT22;3032;49.484;11.112;2022-11-15T07:58:04;13.30;99.90
6008;DHT22;3032;49.484;11.112;2022-11-15T08:00:30;14.00;99.90
6008;DHT22;3032;49.484;11.112;2022-11-15T08:03:04;15.30;99.90
6008;DHT22;3032;49.484;11.112;2022-11-15T08:05:30;15.50;99.90
6008;DHT22;3032;49.484;11.112;2022-11-15T08:07:56;16.90;99.20
6008;DHT22;3032;49.484;11.112;2022-11-15T08:10:22;17.60;97.90
6008;DHT22;3032;49.484;11.112;2022-11-15T08:12:47;19.20;95.30
6008;DHT22;3032;49.484;11.112;2022-11-15T08:15:13;18.80;93.10
6008;DHT22;3032;49.484;11.112;2022-11-15T08:17:38;18.10;93.80
6008;DHT22;3032;49.484;11.112;2022-11-15T08:20:04;18.10;94.70
6008;DHT22;3032;49.484;11.112;2022-11-15T08:22:30;18.10;93.80
6008;DHT22;3032;49.484;11.112;2022-11-15T08:24:56;18.10;94.90
6008;DHT22;3032;49.484;11.112;2022-11-15T08:27:21;17.90;94.40
6008;DHT22;3032;49.484;11.112;2022-11-15T08:29:48;18.00;93.50
6008;DHT22;3032;49.484;11.112;2022-11-15T08:32:15;17.50;94.70
6008;DHT22;3032;49.484;11.112;2022-11-15T08:34:40;17.90;94.30
6008;DHT22;3032;49.484;11.112;2022-11-15T08:37:06;18.70;92.50
6008;DHT22;3032;49.484;11.112;2022-11-15T08:39:32;19.50;92.50
6008;DHT22;3032;49.484;11.112;2022-11-15T08:41:58;20.20;90.70
6008;DHT22;3032;49.484;11.112;2022-11-15T08:44:23;20.80;89.60
6008;DHT22;3032;49.484;11.112;2022-11-15T08:46:49;20.90;86.80
6008;DHT22;3032;49.484;11.112;2022-11-15T08:49:15;21.10;86.20
6008;DHT22;3032;49.484;11.112;2022-11-15T08:51:41;21.80;86.20
6008;DHT22;3032;49.484;11.112;2022-11-15T08:54:07;21.70;83.00
6008;DHT22;3032;49.484;11.112;2022-11-15T08:56:32;22.50;81.70
6008;DHT22;3032;49.484;11.112;2022-11-15T08:58:58;23.10;77.00
6008;DHT22;3032;49.484;11.112;2022-11-15T09:01:23;22.70;75.70
6008;DHT22;3032;49.484;11.112;2022-11-15T09:03:49;23.20;75.70
6008;DHT22;3032;49.484;11.112;2022-11-15T09:06:14;23.60;76.00
6008;DHT22;3032;49.484;11.112;2022-11-15T09:08:41;24.10;73.60
6008;DHT22;3032;49.484;11.112;2022-11-15T09:11:08;24.30;72.90
6008;DHT22;3032;49.484;11.112;2022-11-15T09:13:35;24.90;71.60
6008;DHT22;3032;49.484;11.112;2022-11-15T09:16:03;25.60;68.20
6008;DHT22;3032;49.484;11.112;2022-11-15T09:18:29;24.50;67.50
6008;DHT22;3032;49.484;11.112;2022-11-15T09:20:59;24.40;67.40
6008;DHT22;3032;49.484;11.112;2022-11-15T09:23:25;23.80;67.20
6008;DHT22;3032;49.484;11.112;2022-11-15T09:25:51;24.20;67.90
6008;DHT22;3032;49.484;11.112;2022-11-15T09:28:17;24.50;68.10
6008;DHT22;3032;49.484;11.112;2022-11-15T09:30:43;25.60;66.00
6008;DHT22;3032;49.484;11.112;2022-11-15T09:33:10;24.30;66.20
6008;DHT22;3032;49.484;11.112;2022-11-15T09:35:36;24.50;67.20
6008;DHT22;3032;49.484;11.112;2022-11-15T09:38:02;24.60;67.50
6008;DHT22;3032;49.484;11.112;2022-11-15T09:40:29;24.80;66.00
6008;DHT22;3032;49.484;11.112;2022-11-15T09:43:32;24.60;63.80
6008;DHT22;3032;49.484;11.112;2022-11-15T09:46:15;23.80;63.90
6008;DHT22;3032;49.484;11.112;2022-11-15T09:48:49;23.60;66.00
6008;DHT22;3032;49.484;11.112;2022-11-15T09:51:29;24.60;67.20
6008;DHT22;3032;49.484;11.112;2022-11-15T09:56:38;24.30;63.70
6008;DHT22;3032;49.484;11.112;2022-11-15T09:59:10;24.70;63.80
6008;DHT22;3032;49.484;11.112;2022-11-15T10:02:16;24.90;64.00
6008;DHT22;3032;49.484;11.112;2022-11-15T10:04:43;25.30;63.50
6008;DHT22;3032;49.484;11.112;2022-11-15T10:07:16;25.60;61.90
6008;DHT22;3032;49.484;11.112;2022-11-15T10:09:48;25.50;62.30
6008;DHT22;3032;49.484;11.112;2022-11-15T10:12:15;24.10;63.20
6008;DHT22;3032;49.484;11.112;2022-11-15T10:14:41;23.40;64.90
6008;DHT22;3032;49.484;11.112;2022-11-15T10:17:20;23.60;64.40
6008;DHT22;3032;49.484;11.112;2022-11-15T10:27:34;24.40;64.40
6008;DHT22;3032;49.484;11.112;2022-11-15T10:30:00;24.80;64.00
6008;DHT22;3032;49.484;11.112;2022-11-15T10:32:26;25.50;63.30
6008;DHT22;3032;49.484;11.112;2022-11-15T10:34:52;25.60;62.40
6008;DHT22;3032;49.484;11.112;2022-11-15T10:37:30;25.40;62.20
6008;DHT22;3032;49.484;11.112;2022-11-15T10:40:14;25.00;61.60
6008;DHT22;3032;49.484;11.112;2022-11-15T10:42:41;24.90;59.40
6008;DHT22;3032;49.484;11.112;2022-11-15T10:45:26;23.40;60.90
6008;DHT22;3032;49.484;11.112;2022-11-15T10:47:51;22.10;63.30
6008;DHT22;3032;49.484;11.112;2022-11-15T10:50:29;21.80;63.70
6008;DHT22;3032;49.484;11.112;2022-11-15T10:53:01;21.90;65.30
6008;DHT22;3032;49.484;11.112;2022-11-15T10:55:31;21.90;64.40
6008;DHT22;3032;49.484;11.112;2022-11-15T10:58:04;21.20;64.50
6008;DHT22;3032;49.484;11.112;2022-11-15T11:00:34;20.50;66.40
6008;DHT22;3032;49.484;11.112;2022-11-15T11:03:02;20.40;67.90
6008;DHT22;3032;49.484;11.112;2022-11-15T11:05:39;19.40;68.40
6008;DHT22;3032;49.484;11.112;2022-11-15T11:08:22;18.90;69.00
6008;DHT22;3032;49.484;11.112;2022-11-15T11:10:53;18.50;70.30
6008;DHT22;3032;49.484;11.112;2022-11-15T11:24:24;18.20;72.40
6008;DHT22;3032;49.484;11.112;2022-11-15T11:32:07;18.50;74.40
6008;DHT22;3032;49.484;11.112;2022-11-15T11:37:36;18.00;73.80
6008;DHT22;3032;49.484;11.112;2022-11-15T11:43:10;18.80;75.20
6008;DHT22;3032;49.484;11.112;2022-11-15T11:50:45;20.20;72.70
6008;DHT22;3032;49.484;11.112;2022-11-15T11:53:12;20.40;74.50
6008;DHT22;3032;49.484;11.112;2022-11-15T11:55:44;20.00;72.90
6008;DHT22;3032;49.484;11.112;2022-11-15T11:58:17;20.10;72.60
6008;DHT22;3032;49.484;11.112;2022-11-15T12:00:52;19.50;72.50
6008;DHT22;3032;49.484;11.112;2022-11-15T12:03:36;18.90;73.60
6008;DHT22;3032;49.484;11.112;2022-11-15T12:16:49;18.80;74.40
6008;DHT22;3032;49.484;11.112;2022-11-15T12:19:14;18.70;74.80
6008;DHT22;3032;49.484;11.112;2022-11-15T12:21:44;18.60;76.00
6008;DHT22;3032;49.484;11.112;2022-11-15T12:24:23;18.10;76.10
6008;DHT22;3032;49.484;11.112;2022-11-15T12:26:55;18.20;76.60
6008;DHT22;3032;49.484;11.112;2022-11-15T12:29:31;18.60;77.90
6008;DHT22;3032;49.484;11.112;2022-11-15T12:31:58;18.50;77.40
6008;DHT22;3032;49.484;11.112;2022-11-15T12:34:36;18.80;78.70
6008;DHT22;3032;49.484;11.112;2022-11-15T12:45:28;18.90;77.90
6008;DHT22;3032;49.484;11.112;2022-11-15T12:48:21;19.00;79.80
6008;DHT22;3032;49.484;11.112;2022-11-15T12:53:31;18.80;77.10
6008;DHT22;3032;49.484;11.112;2022-11-15T13:06:58;20.00;76.50
6008;DHT22;3032;49.484;11.112;2022-11-15T13:12:47;20.80;75.80
6008;DHT22;3032;49.484;11.112;2022-11-15T13:17:54;19.50;77.60
6008;DHT22;3032;49.484;11.112;2022-11-15T13:20:27;19.00;77.40
6008;DHT22;3032;49.484;11.112;2022-11-15T13:23:09;19.40;79.20
6008;DHT22;3032;49.484;11.112;2022-11-15T13:28:24;19.20;78.60
6008;DHT22;3032;49.484;11.112;2022-11-15T13:30:56;19.50;80.60
6008;DHT22;3032;49.484;11.112;2022-11-15T13:33:36;19.50;77.40
6008;DHT22;3032;49.484;11.112;2022-11-15T13:36:31;18.90;79.20
6008;DHT22;3032;49.484;11.112;2022-11-15T13:39:01;19.20;78.80
6008;DHT22;3032;49.484;11.112;2022-11-15T13:41:35;19.50;78.40
6008;DHT22;3032;49.484;11.112;2022-11-15T13:44:02;19.70;77.40
6008;DHT22;3032;49.484;11.112;2022-11-15T13:46:28;20.20;78.20
6008;DHT22;3032;49.484;11.112;2022-11-15T13:48:57;19.70;77.30
6008;DHT22;3032;49.484;11.112;2022-11-15T13:53:58;19.70;79.50
6008;DHT22;3032;49.484;11.112;2022-11-15T13:56:26;19.30;79.30
6008;DHT22;3032;49.484;11.112;2022-11-15T13:58:53;19.80;79.70
6008;DHT22;3032;49.484;11.112;2022-11-15T14:01:20;18.60;79.80
6008;DHT22;3032;49.484;11.112;2022-11-15T14:03:56;18.20;81.30
6008;DHT22;3032;49.484;11.112;2022-11-15T14:06:25;18.80;82.20
6008;DHT22;3032;49.484;11.112;2022-11-15T14:09:02;18.30;81.70
6008;DHT22;3032;49.484;11.112;2022-11-15T14:11:28;18.20;82.10
6008;DHT22;3032;49.484;11.112;2022-11-15T14:16:45;18.30;83.10
6008;DHT22;3032;49.484;11.112;2022-11-15T14:19:33;18.40;82.00
6008;DHT22;3032;49.484;11.112;2022-11-15T14:22:24;17.80;82.30
6008;DHT22;3032;49.484;11.112;2022-11-15T14:27:44;16.90;86.60
6008;DHT22;3032;49.484;11.112;2022-11-15T14:30:15;17.00;86.30
6008;DHT22;3032;49.484;11.112;2022-11-15T14:32:48;17.00;87.30
6008;DHT22;3032;49.484;11.112;2022-11-15T14:35:20;17.30;88.00
6008;DHT22;3032;49.484;11.112;2022-11-15T14:37:46;17.30;86.60
6008;DHT22;3032;49.484;11.112;2022-11-15T14:40:18;17.20;88.60
6008;DHT22;3032;49.484;11.112;2022-11-15T14:42:45;17.20;89.70
6008;DHT22;3032;49.484;11.112;2022-11-15T14:45:17;17.80;90.20
6008;DHT22;3032;49.484;11.112;2022-11-15T14:47:43;17.00;89.50
6008;DHT22;3032;49.484;11.112;2022-11-15T14:50:17;16.70;90.40
6008;DHT22;3032;49.484;11.112;2022-11-15T14:52:44;16.90;90.30
6008;DHT22;3032;49.484;11.112;2022-11-15T14:55:30;17.00;90.10
6008;DHT22;3032;49.484;11.112;2022-11-15T14:57:57;16.90;90.50
6008;DHT22;3032;49.484;11.112;2022-11-15T15:00:24;16.90;90.40
6008;DHT22;3032;49.484;11.112;2022-11-15T15:02:52;16.80;90.80
6008;DHT22;3032;49.484;11.112;2022-11-15T15:05:32;16.70;91.00
6008;DHT22;3032;49.484;11.112;2022-11-15T15:07:58;16.90;90.80
6008;DHT22;3032;49.484;11.112;2022-11-15T15:10:25;16.60;91.10
6008;DHT22;3032;49.484;11.112;2022-11-15T15:12:52;16.60;91.90
6008;DHT22;3032;49.484;11.112;2022-11-15T15:15:23;16.30;92.30
6008;DHT22;3032;49.484;11.112;2022-11-15T15:17:49;16.20;92.70
6008;DHT22;3032;49.484;11.112;2022-11-15T15:20:15;16.40;93.50
6008;DHT22;3032;49.484;11.112;2022-11-15T15:22:41;15.90;93.60
6008;DHT22;3032;49.484;11.112;2022-11-15T15:25:26;15.80;94.10
6008;DHT22;3032;49.484;11.112;2022-11-15T15:27:53;15.60;95.00
6008;DHT22;3032;49.484;11.112;2022-11-15T15:30:19;15.60;95.00
6008;DHT22;3032;49.484;11.112;2022-11-15T15:32:45;15.60;95.30
6008;DHT22;3032;49.484;11.112;2022-11-15T15:35:14;16.30;95.60
6008;DHT22;3032;49.484;11.112;2022-11-15T15:37:41;15.80;95.50
6008;DHT22;3032;49.484;11.112;2022-11-15T15:42:38;15.70;96.00
6008;DHT22;3032;49.484;11.112;2022-11-15T15:45:04;16.00;96.40
6008;DHT22;3032;49.484;11.112;2022-11-15T15:47:30;15.50;96.30
6008;DHT22;3032;49.484;11.112;2022-11-15T15:49:56;15.40;96.40
6008;DHT22;3032;49.484;11.112;2022-11-15T15:52:21;15.50;96.30
6008;DHT22;3032;49.484;11.112;2022-11-15T15:54:47;15.40;96.40
6008;DHT22;3032;49.484;11.112;2022-11-15T15:57:13;15.20;97.40
6008;DHT22;3032;49.484;11.112;2022-11-15T15:59:39;14.70;99.40
6008;DHT22;3032;49.484;11.112;2022-11-15T16:02:05;14.10;99.90
6008;DHT22;3032;49.484;11.112;2022-11-15T16:04:31;14.30;99.90
6008;DHT22;3032;49.484;11.112;2022-11-15T16:07:01;14.30;99.90
6008;DHT22;3032;49.484;11.112;2022-11-15T16:09:27;14.40;99.90
6008;DHT22;3032;49.484;11.112;2022-11-15T16:12:11;14.30;99.90
6008;DHT22;3032;49.484;11.112;2022-11-15T16:14:37;14.20;99.90
6008;DHT22;3032;49.484;11.112;2022-11-15T16:17:03;14.70;99.90
6008;DHT22;3032;49.484;11.112;2022-11-15T16:19:28;13.70;99.90
6008;DHT22;3032;49.484;11.112;2022-11-15T16:21:54;13.60;99.90
6008;DHT22;3032;49.484;11.112;2022-11-15T16:24:20;13.70;99.90
6008;DHT22;3032;49.484;11.112;2022-11-15T16:26:47;14.40;99.90
6008;DHT22;3032;49.484;11.112;2022-11-15T16:29:14;14.30;99.90
6008;DHT22;3032;49.484;11.112;2022-11-15T16:31:39;13.70;99.90
6008;DHT22;3032;49.484;11.112;2022-11-15T16:34:05;13.60;99.90
6008;DHT22;3032;49.484;11.112;2022-11-15T16:36:33;13.30;99.90
6008;DHT22;3032;49.484;11.112;2022-11-15T16:38:59;13.10;99.90
6008;DHT22;3032;49.484;11.112;2022-11-15T16:41:25;13.30;99.90
6008;DHT22;3032;49.484;11.112;2022-11-15T16:43:51;13.10;99.90
6008;DHT22;3032;49.484;11.112;2022-11-15T16:46:22;13.40;99.90
6008;DHT22;3032;49.484;11.112;2022-11-15T16:48:48;13.50;99.90
6008;DHT22;3032;49.484;11.112;2022-11-15T16:51:14;13.40;99.90
6008;DHT22;3032;49.484;11.112;2022-11-15T16:53:40;13.20;99.90
6008;DHT22;3032;49.484;11.112;2022-11-15T16:56:25;13.30;99.90
6008;DHT22;3032;49.484;11.112;2022-11-15T16:58:52;12.90;99.90
6008;DHT22;3032;49.484;11.112;2022-11-15T17:01:24;13.40;99.90
6008;DHT22;3032;49.484;11.112;2022-11-15T17:03:50;12.80;99.90
6008;DHT22;3032;49.484;11.112;2022-11-15T17:06:16;13.00;99.90
6008;DHT22;3032;49.484;11.112;2022-11-15T17:08:43;13.00;99.90
6008;DHT22;3032;49.484;11.112;2022-11-15T17:11:12;13.00;99.90
6008;DHT22;3032;49.484;11.112;2022-11-15T17:13:38;13.10;99.90
6008;DHT22;3032;49.484;11.112;2022-11-15T17:16:09;13.40;99.90
6008;DHT22;3032;49.484;11.112;2022-11-15T17:18:36;13.70;99.90
6008;DHT22;3032;49.484;11.112;2022-11-15T17:21:12;13.70;99.90
6008;DHT22;3032;49.484;11.112;2022-11-15T17:23:38;13.90;99.90
6008;DHT22;3032;49.484;11.112;2022-11-15T17:26:04;13.10;99.90
6008;DHT22;3032;49.484;11.112;2022-11-15T17:28:31;12.90;99.90
6008;DHT22;3032;49.484;11.112;2022-11-15T17:30:57;12.50;99.90
6008;DHT22;3032;49.484;11.112;2022-11-15T17:33:23;12.30;99.90
6008;DHT22;3032;49.484;11.112;2022-11-15T17:35:56;12.20;99.90
6008;DHT22;3032;49.484;11.112;2022-11-15T17:38:23;12.10;99.90
6008;DHT22;3032;49.484;11.112;2022-11-15T17:40:48;11.70;99.90
6008;DHT22;3032;49.484;11.112;2022-11-15T17:43:23;11.60;99.90
6008;DHT22;3032;49.484;11.112;2022-11-15T17:45:49;11.90;99.90
6008;DHT22;3032;49.484;11.112;2022-11-15T17:48:14;12.00;99.90
6008;DHT22;3032;49.484;11.112;2022-11-15T17:50:40;12.10;99.90
6008;DHT22;3032;49.484;11.112;2022-11-15T17:53:05;12.10;99.90
6008;DHT22;3032;49.484;11.112;2022-11-15T17:55:31;12.10;99.90